Time;durP1;ratioP1;P1;durP2;ratioP2;P2;SDS_P1;SDS_P2;PMS_P1;PMS_P2;Temp;Humidity;BMP_temperature;BMP_pressure;BME280_temperature;BME280_humidity;BME280_pressure;Samples;Min_cycle;Max_cycle;Signal;HPM_P1;HPM_P2
2023/03/29 00:00:15;;;;;;;2.00;1.30;;;7.40;75.80;;;;;;5076631;28;20064;-69
2023/03/29 00:02:47;;;;;;;1.77;1.42;;;7.40;75.60;;;;;;5078869;28;20020;-68
2023/03/29 00:05:17;;;;;;;3.13;1.70;;;7.50;75.60;;;;;;5071124;28;20029;-69
2023/03/29 00:07:42;;;;;;;2.08;1.70;;;7.40;75.60;;;;;;5070657;28;20035;-69
2023/03/29 00:10:10;;;;;;;2.05;1.42;;;7.40;75.90;;;;;;5070684;28;20025;-69
2023/03/29 00:12:38;;;;;;;2.40;1.95;;;7.40;75.80;;;;;;5084061;28;20028;-67
2023/03/29 00:15:06;;;;;;;4.05;1.88;;;7.40;76.00;;;;;;5078087;28;20488;-66
2023/03/29 00:17:32;;;;;;;2.25;1.40;;;7.30;76.40;;;;;;5082282;28;20490;-68
2023/03/29 00:19:57;;;;;;;2.20;1.60;;;7.30;76.30;;;;;;5090774;28;20035;-68
2023/03/29 00:22:24;;;;;;;2.97;1.77;;;7.30;76.30;;;;;;5083806;28;20016;-68
2023/03/29 00:24:53;;;;;;;3.35;2.00;;;7.30;76.30;;;;;;5070476;28;20039;-68
2023/03/29 00:27:20;;;;;;;4.22;2.20;;;7.40;76.30;;;;;;5080920;28;20035;-70
2023/03/29 00:29:46;;;;;;;2.15;1.58;;;7.40;76.20;;;;;;5069876;28;20074;-67
2023/03/29 00:32:11;;;;;;;2.45;1.73;;;7.40;76.00;;;;;;5070645;28;20040;-69
2023/03/29 00:34:37;;;;;;;3.03;1.90;;;7.40;75.90;;;;;;5070091;28;20054;-68
2023/03/29 00:37:05;;;;;;;3.17;1.80;;;7.40;75.90;;;;;;5086949;28;20036;-69
2023/03/29 00:39:31;;;;;;;3.30;2.00;;;7.40;75.90;;;;;;5089275;28;20052;-69
2023/03/29 00:41:56;;;;;;;3.72;1.75;;;7.50;75.90;;;;;;5081460;28;20047;-68
2023/03/29 00:44:59;;;;;;;2.28;1.60;;;7.50;75.90;;;;;;5088908;28;20081;-68
2023/03/29 00:47:36;;;;;;;2.78;1.55;;;7.50;75.80;;;;;;5087605;28;20432;-68
2023/03/29 00:50:13;;;;;;;2.42;1.90;;;7.50;75.70;;;;;;5079886;28;20028;-70
2023/03/29 00:52:41;;;;;;;2.97;1.70;;;7.50;75.70;;;;;;5086657;28;20756;-65
2023/03/29 00:55:12;;;;;;;2.85;1.80;;;7.50;75.70;;;;;;5070683;28;20044;-66
2023/03/29 00:57:40;;;;;;;2.17;1.45;;;7.50;75.70;;;;;;5075334;28;20039;-68
2023/03/29 01:00:09;;;;;;;2.60;1.50;;;7.50;75.60;;;;;;5070304;28;20021;-67
2023/03/29 01:02:38;;;;;;;2.58;1.60;;;7.50;75.60;;;;;;5082417;28;20028;-66
2023/03/29 01:05:15;;;;;;;3.08;1.80;;;7.50;75.70;;;;;;5089810;28;20017;-68
2023/03/29 01:07:49;;;;;;;2.65;1.67;;;7.50;75.80;;;;;;5086527;28;20081;-66
2023/03/29 01:10:22;;;;;;;2.45;1.42;;;7.50;75.80;;;;;;5069549;28;20028;-66
2023/03/29 01:12:59;;;;;;;2.08;1.50;;;7.50;75.70;;;;;;5081467;28;20071;-68
2023/03/29 01:15:27;;;;;;;1.92;1.75;;;7.50;75.70;;;;;;5070486;28;20025;-68
2023/03/29 01:17:54;;;;;;;3.40;1.95;;;7.60;75.70;;;;;;5070097;28;20622;-68
2023/03/29 01:20:44;;;;;;;2.25;1.60;;;7.50;75.70;;;;;;5069837;28;20048;-67
2023/03/29 01:23:37;;;;;;;2.78;1.65;;;7.50;75.70;;;;;;5072168;28;20714;-68
2023/03/29 01:26:15;;;;;;;2.88;1.60;;;7.60;75.70;;;;;;5089981;28;20555;-69
2023/03/29 01:29:09;;;;;;;2.15;1.40;;;7.50;75.60;;;;;;5069087;28;20386;-68
2023/03/29 01:31:51;;;;;;;2.20;1.52;;;7.50;75.70;;;;;;5069176;28;20040;-69
2023/03/29 01:34:53;;;;;;;2.90;1.60;;;7.50;75.80;;;;;;5079695;28;20677;-68
2023/03/29 01:37:29;;;;;;;2.85;1.70;;;7.60;75.70;;;;;;5077894;28;20036;-67
2023/03/29 01:39:55;;;;;;;4.43;1.98;;;7.60;75.60;;;;;;5086900;28;20021;-68
2023/03/29 01:42:41;;;;;;;3.50;2.10;;;7.60;75.70;;;;;;5088981;28;20039;-69
2023/03/29 01:45:12;;;;;;;3.17;2.10;;;7.60;75.70;;;;;;5089462;28;20024;-68
2023/03/29 01:47:45;;;;;;;3.72;1.83;;;7.60;75.80;;;;;;5089075;28;20035;-68
2023/03/29 01:50:45;;;;;;;2.85;1.80;;;7.60;75.70;;;;;;5089759;28;20020;-68
2023/03/29 01:53:23;;;;;;;3.40;2.15;;;7.60;75.60;;;;;;5082388;28;20107;-67
2023/03/29 01:55:59;;;;;;;5.40;2.58;;;7.60;75.50;;;;;;5069047;28;20028;-67
2023/03/29 01:58:37;;;;;;;3.95;1.85;;;7.70;75.70;;;;;;5073844;28;20036;-69
2023/03/29 02:01:09;;;;;;;2.83;1.70;;;7.70;75.60;;;;;;5072449;28;20029;-68
2023/03/29 02:03:41;;;;;;;3.40;1.83;;;7.70;75.50;;;;;;5073600;28;20034;-69
2023/03/29 02:06:09;;;;;;;1.92;1.40;;;7.70;75.50;;;;;;5072619;28;20021;-69
2023/03/29 02:08:37;;;;;;;2.17;1.60;;;7.80;75.40;;;;;;5078628;28;20033;-69
2023/03/29 02:11:03;;;;;;;2.45;1.60;;;7.80;75.30;;;;;;5075521;28;20024;-68
2023/03/29 02:13:29;;;;;;;2.55;1.60;;;7.80;75.20;;;;;;5091626;28;20039;-67
2023/03/29 02:15:55;;;;;;;2.50;1.55;;;7.80;75.20;;;;;;5077259;28;20024;-69
2023/03/29 02:18:21;;;;;;;2.92;1.80;;;7.90;75.20;;;;;;5072952;28;20653;-69
2023/03/29 02:20:49;;;;;;;2.13;1.50;;;7.90;75.10;;;;;;5085863;28;20020;-69
2023/03/29 02:23:27;;;;;;;2.95;2.10;;;7.90;75.10;;;;;;5090971;28;20024;-68
2023/03/29 02:25:53;;;;;;;4.03;1.80;;;7.90;75.20;;;;;;5080659;28;20161;-68
2023/03/29 02:28:23;;;;;;;3.47;2.10;;;7.90;75.30;;;;;;5080086;28;20052;-68
2023/03/29 02:31:09;;;;;;;4.30;2.60;;;7.90;75.30;;;;;;5071815;28;20025;-66
2023/03/29 02:33:59;;;;;;;6.22;2.55;;;7.80;75.70;;;;;;5070442;28;20040;-69
2023/03/29 02:36:39;;;;;;;5.55;2.55;;;7.80;76.10;;;;;;5079396;28;20081;-67
2023/03/29 02:39:07;;;;;;;2.95;2.25;;;7.80;76.30;;;;;;5071018;28;20075;-68
2023/03/29 02:41:33;;;;;;;3.35;2.20;;;7.70;76.40;;;;;;5105112;28;20040;-68
2023/03/29 02:44:00;;;;;;;2.83;2.17;;;7.80;76.40;;;;;;5072578;28;20032;-69
2023/03/29 02:46:26;;;;;;;3.50;2.10;;;7.80;76.70;;;;;;5076087;28;20069;-67
2023/03/29 02:48:53;;;;;;;2.90;2.10;;;7.70;76.90;;;;;;5085311;28;20182;-68
2023/03/29 02:51:30;;;;;;;4.57;2.40;;;7.70;77.20;;;;;;5092356;28;20013;-69
2023/03/29 02:54:04;;;;;;;4.07;2.03;;;7.60;78.00;;;;;;5078694;28;20028;-69
2023/03/29 02:56:30;;;;;;;4.22;2.00;;;7.60;79.00;;;;;;5072001;28;20059;-69
2023/03/29 02:58:56;;;;;;;3.05;2.10;;;7.50;78.40;;;;;;5084466;28;20024;-67
2023/03/29 03:01:21;;;;;;;4.85;2.70;;;7.50;78.70;;;;;;5091603;28;20054;-67
2023/03/29 03:03:49;;;;;;;3.13;2.20;;;7.50;79.10;;;;;;5080263;28;20017;-68
2023/03/29 03:06:15;;;;;;;3.72;2.30;;;7.40;79.50;;;;;;5070122;28;20387;-67
2023/03/29 03:08:40;;;;;;;3.83;2.35;;;7.40;79.70;;;;;;5084205;28;20020;-68
2023/03/29 03:11:07;;;;;;;3.75;2.30;;;7.40;80.00;;;;;;5092179;28;20402;-66
2023/03/29 03:13:33;;;;;;;5.28;2.50;;;7.40;80.40;;;;;;5085160;28;20507;-66
2023/03/29 03:15:59;;;;;;;3.67;2.50;;;7.40;80.70;;;;;;5071883;28;20089;-69
2023/03/29 03:18:26;;;;;;;4.28;2.70;;;7.40;80.90;;;;;;5082782;28;20020;-66
2023/03/29 03:21:00;;;;;;;3.28;2.20;;;7.30;81.40;;;;;;5079483;28;20027;-68
2023/03/29 03:23:27;;;;;;;2.35;1.83;;;7.40;81.30;;;;;;5071880;28;20017;-67
2023/03/29 03:25:54;;;;;;;2.92;1.90;;;7.40;81.10;;;;;;5071001;28;20025;-68
2023/03/29 03:28:20;;;;;;;3.88;1.75;;;7.40;81.00;;;;;;5076716;28;20494;-68
2023/03/29 03:30:46;;;;;;;3.20;1.92;;;7.50;80.70;;;;;;5091348;28;20028;-67
2023/03/29 03:33:12;;;;;;;2.97;1.85;;;7.50;80.80;;;;;;5076929;28;20155;-67
2023/03/29 03:35:38;;;;;;;5.22;2.40;;;7.50;80.80;;;;;;5075585;28;20028;-67
2023/03/29 03:38:04;;;;;;;3.38;2.00;;;7.50;81.00;;;;;;5091142;28;20024;-69
2023/03/29 03:40:31;;;;;;;4.47;2.70;;;7.50;81.00;;;;;;5088864;28;20058;-68
2023/03/29 03:42:57;;;;;;;2.80;1.95;;;7.50;81.30;;;;;;5090800;28;20027;-68
2023/03/29 03:45:23;;;;;;;3.20;2.42;;;7.50;81.20;;;;;;5089259;28;20032;-69
2023/03/29 03:47:49;;;;;;;3.75;2.28;;;7.60;81.30;;;;;;5086915;28;20020;-69
2023/03/29 03:50:15;;;;;;;3.95;2.35;;;7.60;81.20;;;;;;5088329;28;20028;-69
2023/03/29 03:52:41;;;;;;;3.17;2.35;;;7.50;81.90;;;;;;5087631;28;20500;-68
2023/03/29 03:55:08;;;;;;;3.63;2.17;;;7.50;81.90;;;;;;5086070;28;20504;-66
2023/03/29 03:57:36;;;;;;;2.92;2.10;;;7.60;81.70;;;;;;5084293;28;20027;-68
2023/03/29 04:00:06;;;;;;;4.28;2.22;;;7.60;81.60;;;;;;5070777;28;20031;-68
2023/03/29 04:02:32;;;;;;;5.63;2.70;;;7.60;81.60;;;;;;5085490;28;20539;-67
2023/03/29 04:05:01;;;;;;;4.95;2.20;;;7.60;82.30;;;;;;5090285;28;20027;-68
2023/03/29 04:07:27;;;;;;;3.47;1.98;;;7.60;82.20;;;;;;5089955;28;20012;-68
2023/03/29 04:09:52;;;;;;;4.38;2.63;;;7.60;82.00;;;;;;5089745;28;20561;-68
2023/03/29 04:12:18;;;;;;;2.95;2.03;;;7.60;82.20;;;;;;5089945;28;20386;-68
2023/03/29 04:14:45;;;;;;;4.28;2.15;;;7.70;82.10;;;;;;5076234;28;20618;-68
2023/03/29 04:17:11;;;;;;;2.42;1.95;;;7.70;81.90;;;;;;5090704;28;20032;-68
2023/03/29 04:19:36;;;;;;;6.03;2.72;;;7.70;81.90;;;;;;5089857;28;20030;-68
2023/03/29 04:22:02;;;;;;;4.03;2.42;;;7.70;82.10;;;;;;5090770;28;20055;-68
2023/03/29 04:24:27;;;;;;;3.70;2.20;;;7.70;82.50;;;;;;5089819;28;20024;-66
2023/03/29 04:26:53;;;;;;;3.70;2.22;;;7.60;82.70;;;;;;5090403;28;20028;-67
2023/03/29 04:29:19;;;;;;;3.78;2.00;;;7.70;82.60;;;;;;5076593;28;20475;-68
2023/03/29 04:31:44;;;;;;;3.50;2.15;;;7.70;82.40;;;;;;5090669;28;20053;-68
2023/03/29 04:34:10;;;;;;;3.78;2.05;;;7.80;82.40;;;;;;5077445;28;20029;-67
2023/03/29 04:36:35;;;;;;;3.17;2.08;;;7.80;82.20;;;;;;5088471;28;20016;-67
2023/03/29 04:39:03;;;;;;;3.05;1.95;;;7.80;82.20;;;;;;5084170;28;20107;-68
2023/03/29 04:41:28;;;;;;;4.18;1.88;;;7.80;82.20;;;;;;5069053;28;20166;-67
2023/03/29 04:43:54;;;;;;;4.00;2.08;;;7.80;82.30;;;;;;5069824;28;20067;-68
2023/03/29 04:46:21;;;;;;;4.20;2.55;;;7.80;82.20;;;;;;5076310;28;20040;-68
2023/03/29 04:48:46;;;;;;;3.08;2.08;;;7.90;82.20;;;;;;5085786;28;20024;-68
2023/03/29 04:51:12;;;;;;;2.38;1.83;;;7.90;82.10;;;;;;5087249;28;20032;-69
2023/03/29 04:53:37;;;;;;;3.35;2.15;;;7.90;81.90;;;;;;5082498;28;20047;-67
2023/03/29 04:56:03;;;;;;;1.95;1.70;;;8.00;81.90;;;;;;5070446;28;20032;-68
2023/03/29 04:58:29;;;;;;;3.47;2.10;;;7.90;81.80;;;;;;5074621;28;20031;-67
2023/03/29 05:00:57;;;;;;;3.65;1.90;;;8.00;81.60;;;;;;5089280;28;20024;-68
2023/03/29 05:03:23;;;;;;;2.97;2.00;;;8.00;81.60;;;;;;5085618;28;20016;-68
2023/03/29 05:05:49;;;;;;;3.22;2.00;;;8.00;81.60;;;;;;5088189;28;20099;-68
2023/03/29 05:08:15;;;;;;;2.47;1.67;;;8.00;81.40;;;;;;5089264;28;20063;-68
2023/03/29 05:10:42;;;;;;;2.30;1.75;;;8.10;81.30;;;;;;5087335;28;20020;-69
2023/03/29 05:13:08;;;;;;;2.55;1.80;;;8.10;81.10;;;;;;5070100;28;20060;-68
2023/03/29 05:15:35;;;;;;;2.40;1.80;;;8.10;81.10;;;;;;5076992;28;20020;-68
2023/03/29 05:18:01;;;;;;;2.33;1.70;;;8.10;81.10;;;;;;5074302;28;20032;-68
2023/03/29 05:20:28;;;;;;;2.85;1.70;;;8.10;81.00;;;;;;5075787;28;20027;-68
2023/03/29 05:22:54;;;;;;;2.08;1.70;;;8.20;81.00;;;;;;5089098;28;20020;-68
2023/03/29 05:25:20;;;;;;;3.22;1.77;;;8.20;80.80;;;;;;5084315;28;20024;-69
2023/03/29 05:27:45;;;;;;;2.65;2.00;;;8.20;80.80;;;;;;5068884;28;20104;-68
2023/03/29 05:30:14;;;;;;;4.05;1.73;;;8.20;80.90;;;;;;5071933;28;20016;-67
2023/03/29 05:32:40;;;;;;;2.03;1.60;;;8.20;80.70;;;;;;5079466;28;20394;-68
2023/03/29 05:35:06;;;;;;;3.10;1.85;;;8.20;80.60;;;;;;5084959;28;20019;-68
2023/03/29 05:37:33;;;;;;;2.78;1.67;;;8.30;80.60;;;;;;5086878;28;20036;-68
2023/03/29 05:39:58;;;;;;;3.42;2.05;;;8.30;80.60;;;;;;5080454;28;20024;-68
2023/03/29 05:42:24;;;;;;;2.38;2.03;;;8.30;80.50;;;;;;5092790;28;20084;-69
2023/03/29 05:44:50;;;;;;;2.58;1.85;;;8.30;80.50;;;;;;5090554;28;20048;-68
2023/03/29 05:47:15;;;;;;;4.22;2.10;;;8.30;80.60;;;;;;5092765;28;20359;-66
2023/03/29 05:49:41;;;;;;;2.67;2.10;;;8.30;80.50;;;;;;5093347;28;20112;-69
2023/03/29 05:52:07;;;;;;;2.67;1.90;;;8.30;80.50;;;;;;5091530;28;20024;-69
2023/03/29 05:54:33;;;;;;;2.65;1.80;;;8.30;80.30;;;;;;5084858;28;20029;-68
2023/03/29 05:56:58;;;;;;;2.53;1.80;;;8.40;80.10;;;;;;5089726;28;20074;-69
2023/03/29 05:59:27;;;;;;;2.08;1.73;;;8.40;80.00;;;;;;5089410;28;20025;-66
2023/03/29 06:01:52;;;;;;;2.70;2.03;;;8.40;79.90;;;;;;5072889;28;20056;-68
2023/03/29 06:04:18;;;;;;;2.63;2.00;;;8.40;80.00;;;;;;5074331;28;20048;-67
2023/03/29 06:06:43;;;;;;;3.42;1.90;;;8.40;79.90;;;;;;5083775;28;20040;-69
2023/03/29 06:09:09;;;;;;;2.22;1.75;;;8.50;79.80;;;;;;5078296;28;20028;-68
2023/03/29 06:11:35;;;;;;;3.08;1.90;;;8.50;79.70;;;;;;5084384;28;20028;-68
2023/03/29 06:14:01;;;;;;;1.80;1.40;;;8.50;79.60;;;;;;5072839;28;20024;-66
2023/03/29 06:16:27;;;;;;;2.60;1.60;;;8.60;79.50;;;;;;5090359;28;20505;-66
2023/03/29 06:18:53;;;;;;;1.98;1.63;;;8.60;79.40;;;;;;5093009;28;20397;-69
2023/03/29 06:21:19;;;;;;;2.45;1.63;;;8.60;79.40;;;;;;5082939;28;20512;-68
2023/03/29 06:23:45;;;;;;;5.70;2.00;;;8.60;79.30;;;;;;5079713;28;20039;-67
2023/03/29 06:26:11;;;;;;;4.15;2.50;;;8.70;79.40;;;;;;5085361;28;20047;-67
2023/03/29 06:28:37;;;;;;;3.10;1.80;;;8.70;79.40;;;;;;5083427;28;20542;-69
2023/03/29 06:31:03;;;;;;;2.72;1.83;;;8.70;79.30;;;;;;5082303;28;20028;-69
2023/03/29 06:33:31;;;;;;;1.70;1.58;;;8.80;79.20;;;;;;5084982;28;20024;-68
2023/03/29 06:35:57;;;;;;;3.28;1.92;;;8.80;79.10;;;;;;5089466;28;20394;-68
2023/03/29 06:38:23;;;;;;;3.55;2.35;;;8.90;78.90;;;;;;5086401;28;20016;-68
2023/03/29 06:40:50;;;;;;;3.33;1.98;;;8.80;78.80;;;;;;5081836;28;20620;-68
2023/03/29 06:43:16;;;;;;;5.38;2.60;;;8.90;78.90;;;;;;5087394;28;20103;-68
2023/03/29 06:45:42;;;;;;;4.50;2.60;;;9.00;78.80;;;;;;5086314;28;20008;-68
2023/03/29 06:48:10;;;;;;;3.33;2.40;;;9.00;78.60;;;;;;5087556;28;20048;-68
2023/03/29 06:50:35;;;;;;;4.07;2.30;;;9.00;78.40;;;;;;5084749;28;20038;-67
2023/03/29 06:53:02;;;;;;;4.78;2.30;;;9.00;78.50;;;;;;5088127;28;20115;-68
2023/03/29 06:55:28;;;;;;;3.83;2.45;;;9.00;78.60;;;;;;5090093;28;20020;-69
2023/03/29 06:57:54;;;;;;;5.03;2.40;;;9.00;78.60;;;;;;5085572;28;20024;-68
2023/03/29 07:00:26;;;;;;;2.70;2.00;;;9.00;78.70;;;;;;5081790;28;20510;-69
2023/03/29 07:03:00;;;;;;;4.93;2.40;;;9.10;78.70;;;;;;5076803;28;20028;-68
2023/03/29 07:05:26;;;;;;;3.10;2.03;;;9.10;78.80;;;;;;5082988;28;20107;-69
2023/03/29 07:07:56;;;;;;;4.40;2.28;;;9.10;78.80;;;;;;5076048;28;20027;-67
2023/03/29 07:10:37;;;;;;;4.38;2.33;;;9.20;78.80;;;;;;5084343;28;20416;-68
2023/03/29 07:13:04;;;;;;;3.70;2.00;;;9.20;79.60;;;;;;5079121;28;20101;-68
2023/03/29 07:15:31;;;;;;;2.42;1.92;;;9.30;78.90;;;;;;5083694;28;20032;-67
2023/03/29 07:17:56;;;;;;;3.25;2.00;;;9.30;78.90;;;;;;5079376;28;20645;-66
2023/03/29 07:20:23;;;;;;;3.92;2.20;;;9.30;79.50;;;;;;5085259;28;20031;-69
2023/03/29 07:22:52;;;;;;;3.67;2.13;;;9.30;78.90;;;;;;5085729;28;20031;-68
2023/03/29 07:25:21;;;;;;;3.58;2.00;;;9.30;79.00;;;;;;5084708;28;20554;-68
2023/03/29 07:27:47;;;;;;;3.70;1.98;;;9.30;79.10;;;;;;5084615;28;20079;-68
2023/03/29 07:30:18;;;;;;;2.47;1.67;;;9.40;79.00;;;;;;5087422;28;20043;-67
2023/03/29 07:32:45;;;;;;;3.95;2.05;;;9.40;79.10;;;;;;5086197;28;20020;-69
2023/03/29 07:35:13;;;;;;;4.53;2.17;;;9.50;79.10;;;;;;5081211;28;20384;-68
2023/03/29 07:37:41;;;;;;;5.47;2.88;;;9.50;79.10;;;;;;5078431;28;20032;-68
2023/03/29 07:40:14;;;;;;;5.28;2.50;;;9.50;79.20;;;;;;5085894;28;20044;-68
2023/03/29 07:42:43;;;;;;;3.83;2.30;;;9.50;79.10;;;;;;5086410;28;20379;-69
2023/03/29 07:45:12;;;;;;;2.65;1.88;;;9.60;79.00;;;;;;5083553;28;20032;-67
2023/03/29 07:47:38;;;;;;;3.45;1.83;;;9.70;78.90;;;;;;5080717;28;20028;-68
2023/03/29 07:50:07;;;;;;;2.90;2.17;;;9.80;78.70;;;;;;5084717;28;20032;-69
2023/03/29 07:52:33;;;;;;;2.75;2.03;;;9.80;78.50;;;;;;5085410;28;20107;-69
2023/03/29 07:54:58;;;;;;;3.38;2.22;;;9.90;78.40;;;;;;5078630;28;20032;-68
2023/03/29 07:57:25;;;;;;;3.40;2.10;;;9.90;78.30;;;;;;5082078;28;20035;-69
2023/03/29 07:59:54;;;;;;;6.07;2.33;;;10.00;78.30;;;;;;5084532;28;20093;-69
2023/03/29 08:02:20;;;;;;;3.00;2.22;;;10.00;78.10;;;;;;5086767;28;20027;-67
2023/03/29 08:04:46;;;;;;;3.00;2.00;;;10.10;78.00;;;;;;5090106;28;20020;-67
2023/03/29 08:07:13;;;;;;;3.28;1.50;;;10.20;77.90;;;;;;5080983;28;20482;-68
2023/03/29 08:09:39;;;;;;;3.05;2.00;;;10.30;77.70;;;;;;5083156;28;20154;-68
2023/03/29 08:12:06;;;;;;;4.28;2.15;;;10.30;77.60;;;;;;5085974;28;20024;-69
2023/03/29 08:14:32;;;;;;;3.53;2.10;;;10.30;77.50;;;;;;5079763;28;20039;-68
2023/03/29 08:16:57;;;;;;;3.00;1.85;;;10.30;77.50;;;;;;5084599;28;20017;-69
2023/03/29 08:19:23;;;;;;;2.78;1.98;;;10.40;77.50;;;;;;5084301;28;20038;-69
2023/03/29 08:21:48;;;;;;;3.78;2.20;;;10.40;77.30;;;;;;5080099;28;20485;-67
2023/03/29 08:24:14;;;;;;;3.05;1.98;;;10.50;77.20;;;;;;5077009;28;20036;-66
2023/03/29 08:26:40;;;;;;;7.72;2.72;;;10.50;77.20;;;;;;5076718;28;20032;-68
2023/03/29 08:29:07;;;;;;;5.20;2.63;;;10.40;77.20;;;;;;5084974;28;20740;-68
2023/03/29 08:31:33;;;;;;;7.95;3.25;;;10.50;77.30;;;;;;5083900;28;20100;-67
2023/03/29 08:33:58;;;;;;;5.57;3.17;;;10.40;77.20;;;;;;5082581;28;20023;-68
2023/03/29 08:36:24;;;;;;;5.47;3.05;;;10.40;77.20;;;;;;5081318;28;20024;-68
2023/03/29 08:38:50;;;;;;;3.92;2.70;;;10.50;77.30;;;;;;5080757;28;20040;-68
2023/03/29 08:41:26;;;;;;;6.50;3.05;;;10.50;77.40;;;;;;5083425;28;20016;-68
2023/03/29 08:44:15;;;;;;;4.88;2.55;;;10.50;77.40;;;;;;5082614;28;20038;-67
2023/03/29 08:47:00;;;;;;;4.53;2.60;;;10.50;78.00;;;;;;5082147;28;20024;-68
2023/03/29 08:49:27;;;;;;;5.03;3.20;;;10.60;77.30;;;;;;5083959;28;20028;-69
2023/03/29 08:51:58;;;;;;;6.68;3.40;;;10.70;77.20;;;;;;5082401;28;20517;-69
2023/03/29 08:54:39;;;;;;;5.73;3.40;;;10.80;77.10;;;;;;5080469;28;20444;-69
2023/03/29 08:57:14;;;;;;;6.72;3.65;;;10.90;76.90;;;;;;5079916;28;20024;-69
2023/03/29 08:59:41;;;;;;;5.13;3.28;;;11.00;76.80;;;;;;5079407;28;20379;-69
2023/03/29 09:02:15;;;;;;;5.38;2.75;;;11.10;76.70;;;;;;5084565;28;20061;-69
2023/03/29 09:04:41;;;;;;;6.47;3.10;;;11.20;76.50;;;;;;5081826;28;20458;-68
2023/03/29 09:07:10;;;;;;;7.32;3.95;;;11.40;76.40;;;;;;5078069;28;20038;-68
2023/03/29 09:09:37;;;;;;;7.85;3.88;;;11.50;76.20;;;;;;5082012;28;20077;-69
2023/03/29 09:12:21;;;;;;;5.82;3.70;;;11.50;76.20;;;;;;5084703;28;20702;-68
2023/03/29 09:15:07;;;;;;;6.45;3.50;;;11.60;76.30;;;;;;5080581;28;20033;-67
2023/03/29 09:17:49;;;;;;;7.40;3.35;;;11.50;76.40;;;;;;5082034;28;20111;-68
2023/03/29 09:20:36;;;;;;;9.60;4.20;;;11.50;76.50;;;;;;5081963;28;20084;-68
2023/03/29 09:23:11;;;;;;;7.55;3.97;;;11.50;76.90;;;;;;5079465;28;20099;-68
2023/03/29 09:25:56;;;;;;;6.85;3.58;;;11.50;77.10;;;;;;5085686;28;20034;-68
2023/03/29 09:28:25;;;;;;;4.40;2.75;;;11.60;77.00;;;;;;5079717;28;20397;-67
2023/03/29 09:31:20;;;;;;;8.20;4.20;;;11.70;77.00;;;;;;5083846;28;20498;-68
2023/03/29 09:33:50;;;;;;;6.75;3.30;;;11.70;77.40;;;;;;5081819;28;20031;-68
2023/03/29 09:36:21;;;;;;;5.88;3.03;;;11.70;77.50;;;;;;5085290;28;20013;-69
2023/03/29 09:38:49;;;;;;;3.78;2.58;;;11.90;77.40;;;;;;5080488;28;20024;-69
2023/03/29 09:41:34;;;;;;;4.13;2.75;;;12.10;77.20;;;;;;5083021;28;20103;-68
2023/03/29 09:44:04;;;;;;;4.57;2.80;;;12.20;77.00;;;;;;5080720;28;20028;-69
2023/03/29 09:46:38;;;;;;;5.18;2.97;;;12.20;76.90;;;;;;5083913;28;20082;-69
2023/03/29 09:49:09;;;;;;;7.20;4.00;;;12.30;76.90;;;;;;5082711;28;20028;-68
2023/03/29 09:51:36;;;;;;;6.80;3.90;;;12.40;77.00;;;;;;5083871;28;20038;-68
2023/03/29 09:54:02;;;;;;;5.78;3.55;;;12.30;77.00;;;;;;5080550;28;20033;-68
2023/03/29 09:56:28;;;;;;;6.32;3.53;;;12.30;77.10;;;;;;5080973;28;20028;-68
2023/03/29 09:58:53;;;;;;;5.32;3.40;;;12.40;77.20;;;;;;5081984;28;20040;-67
2023/03/29 10:01:19;;;;;;;7.38;4.38;;;12.50;77.20;;;;;;5084250;28;20034;-68
2023/03/29 10:03:51;;;;;;;5.70;3.80;;;12.50;77.10;;;;;;5085872;28;20020;-68
2023/03/29 10:06:19;;;;;;;7.28;4.78;;;12.60;77.00;;;;;;5082421;28;20012;-68
2023/03/29 10:08:56;;;;;;;7.05;3.83;;;12.60;77.00;;;;;;5081965;28;20324;-68
2023/03/29 10:11:27;;;;;;;6.82;3.80;;;12.60;77.20;;;;;;5083111;28;20023;-68
2023/03/29 10:13:55;;;;;;;9.65;5.43;;;12.70;77.10;;;;;;5081283;28;20025;-67
2023/03/29 10:16:28;;;;;;;8.75;4.65;;;12.60;77.30;;;;;;5082663;28;20032;-69
2023/03/29 10:18:54;;;;;;;7.10;4.05;;;12.50;77.50;;;;;;5088793;28;20897;-68
2023/03/29 10:21:20;;;;;;;7.85;3.90;;;12.60;77.60;;;;;;5087978;28;20016;-69
2023/03/29 10:23:47;;;;;;;7.78;3.90;;;12.60;77.60;;;;;;5088236;28;20030;-67
2023/03/29 10:26:28;;;;;;;8.85;4.85;;;12.70;77.60;;;;;;5083470;28;20032;-67
2023/03/29 10:28:56;;;;;;;6.47;3.65;;;12.70;77.70;;;;;;5087462;28;20036;-68
2023/03/29 10:31:22;;;;;;;6.07;3.55;;;12.70;77.60;;;;;;5087215;28;20048;-68
2023/03/29 10:33:56;;;;;;;6.18;3.47;;;12.80;77.60;;;;;;5086668;28;20498;-68
2023/03/29 10:36:25;;;;;;;4.70;3.25;;;13.00;77.40;;;;;;5083108;28;20036;-68
2023/03/29 10:38:53;;;;;;;9.07;4.63;;;13.10;77.30;;;;;;5087517;28;20028;-67
2023/03/29 10:41:21;;;;;;;6.47;3.63;;;13.20;77.10;;;;;;5083924;28;20031;-70
2023/03/29 10:43:50;;;;;;;5.40;3.50;;;13.20;77.00;;;;;;5088042;28;20028;-66
2023/03/29 10:46:30;;;;;;;5.68;3.20;;;13.30;76.90;;;;;;5087261;28;20544;-68
2023/03/29 10:48:58;;;;;;;5.22;3.20;;;13.50;76.80;;;;;;5087991;28;20085;-69
2023/03/29 10:51:28;;;;;;;5.78;3.83;;;13.50;76.60;;;;;;5084080;28;20020;-67
2023/03/29 10:53:56;;;;;;;6.85;3.60;;;13.50;76.60;;;;;;5088444;28;20016;-68
2023/03/29 10:56:42;;;;;;;5.35;3.30;;;13.40;76.70;;;;;;5085186;28;20065;-67
2023/03/29 10:59:38;;;;;;;5.50;3.10;;;13.40;76.80;;;;;;5087335;28;20032;-68
2023/03/29 11:02:16;;;;;;;7.95;4.97;;;13.40;77.00;;;;;;5086269;28;20375;-68
2023/03/29 11:05:06;;;;;;;8.27;4.63;;;13.40;77.20;;;;;;5086288;28;20023;-68
2023/03/29 11:07:55;;;;;;;6.60;4.00;;;13.30;77.40;;;;;;5087084;28;20024;-68
2023/03/29 11:10:54;;;;;;;7.10;4.13;;;13.30;77.50;;;;;;5084226;28;20043;-66
2023/03/29 11:13:41;;;;;;;7.28;4.05;;;13.30;77.90;;;;;;5087273;28;20545;-69
2023/03/29 11:16:29;;;;;;;6.45;4.00;;;13.20;78.20;;;;;;5084602;28;20121;-68
2023/03/29 11:19:15;;;;;;;5.22;3.85;;;13.30;78.30;;;;;;5082932;28;20044;-68
2023/03/29 11:21:48;;;;;;;3.63;2.58;;;13.40;78.10;;;;;;5086278;28;20868;-68
2023/03/29 11:24:36;;;;;;;7.65;4.10;;;13.60;78.00;;;;;;5085738;28;20034;-69
2023/03/29 11:27:22;;;;;;;6.68;4.13;;;13.50;78.00;;;;;;5083551;28;20467;-68
2023/03/29 11:29:47;;;;;;;8.93;3.55;;;13.40;78.10;;;;;;5080611;28;20024;-68
2023/03/29 11:32:53;;;;;;;5.85;3.80;;;13.50;78.20;;;;;;5083183;28;20081;-69
2023/03/29 11:35:42;;;;;;;7.03;3.85;;;13.60;78.20;;;;;;5080202;28;20016;-68
2023/03/29 11:38:31;;;;;;;6.88;3.78;;;13.60;78.10;;;;;;5082582;28;20143;-68
2023/03/29 11:41:17;;;;;;;8.13;5.05;;;13.70;77.90;;;;;;5085087;28;20032;-69
2023/03/29 11:44:12;;;;;;;8.75;4.80;;;13.80;77.80;;;;;;5084220;28;20024;-68
2023/03/29 11:46:57;;;;;;;7.25;4.63;;;13.70;77.60;;;;;;5084697;28;20031;-69
2023/03/29 11:49:35;;;;;;;5.88;3.75;;;13.70;77.80;;;;;;5086525;28;20028;-68
2023/03/29 11:52:09;;;;;;;6.85;4.00;;;13.60;77.90;;;;;;5069887;28;20115;-68
2023/03/29 11:54:40;;;;;;;6.47;3.45;;;13.60;78.00;;;;;;5082939;28;20077;-68
2023/03/29 11:57:15;;;;;;;3.90;2.40;;;13.60;78.10;;;;;;5079224;28;20119;-68
2023/03/29 11:59:52;;;;;;;4.85;2.63;;;13.60;78.60;;;;;;5084020;28;20036;-69
2023/03/29 12:02:38;;;;;;;3.55;2.20;;;13.70;78.10;;;;;;5083256;28;20463;-69
2023/03/29 12:05:17;;;;;;;4.65;2.67;;;13.70;78.10;;;;;;5083725;28;20110;-68
2023/03/29 12:08:06;;;;;;;6.38;3.60;;;13.80;78.00;;;;;;5082519;28;20120;-68
2023/03/29 12:11:11;;;;;;;7.25;4.40;;;13.80;78.00;;;;;;5081913;28;20027;-67
2023/03/29 12:13:54;;;;;;;7.75;4.20;;;13.80;78.00;;;;;;5071426;28;20051;-69
2023/03/29 12:16:24;;;;;;;;;;;13.80;78.10;;;;;;5080321;28;20122;-68
2023/03/29 12:18:54;;;;;;;5.15;3.50;;;13.80;78.10;;;;;;5084380;28;19999;-68
2023/03/29 12:21:21;;;;;;;7.22;4.65;;;13.70;78.20;;;;;;5084739;28;20027;-70
2023/03/29 12:23:48;;;;;;;6.53;4.00;;;13.60;78.30;;;;;;5085753;28;20386;-68
2023/03/29 12:26:33;;;;;;;9.35;4.50;;;13.60;78.50;;;;;;5084509;28;20459;-68
2023/03/29 12:29:37;;;;;;;6.10;3.60;;;13.50;78.60;;;;;;5084317;28;20502;-69
2023/03/29 12:32:23;;;;;;;6.18;3.53;;;13.60;78.70;;;;;;5084255;28;20039;-68
2023/03/29 12:35:06;;;;;;;6.55;3.70;;;13.60;78.70;;;;;;5083745;28;20089;-69
2023/03/29 12:37:49;;;;;;;7.82;4.18;;;13.60;78.70;;;;;;5081229;28;20111;-69
2023/03/29 12:40:18;;;;;;;6.38;3.17;;;13.70;78.70;;;;;;5084096;28;20651;-69
2023/03/29 12:42:52;;;;;;;4.95;3.60;;;13.80;78.60;;;;;;5084780;28;20092;-69
2023/03/29 12:45:41;;;;;;;5.53;3.50;;;13.90;78.40;;;;;;5080848;28;20020;-69
2023/03/29 12:48:17;;;;;;;4.45;2.90;;;13.90;78.40;;;;;;5082503;28;20020;-68
2023/03/29 12:51:03;;;;;;;6.68;3.80;;;13.90;78.40;;;;;;5086147;28;20096;-66
2023/03/29 12:53:45;;;;;;;4.13;3.05;;;13.90;78.50;;;;;;5081761;28;21012;-67
2023/03/29 12:56:18;;;;;;;8.38;3.78;;;13.80;78.60;;;;;;5082468;28;20165;-69
2023/03/29 12:58:57;;;;;;;7.20;4.80;;;13.80;78.70;;;;;;5080871;28;20378;-67
2023/03/29 13:01:25;;;;;;;4.90;3.20;;;13.80;79.00;;;;;;5083285;28;20024;-69
2023/03/29 13:03:54;;;;;;;4.18;2.95;;;13.80;79.00;;;;;;5079088;28;20111;-65
2023/03/29 13:06:45;;;;;;;5.32;3.60;;;13.80;79.20;;;;;;5081399;28;20168;-68
2023/03/29 13:09:28;;;;;;;7.10;3.67;;;13.70;79.50;;;;;;5080623;28;20400;-70
2023/03/29 13:12:05;;;;;;;5.70;3.22;;;13.60;79.30;;;;;;5084509;28;20042;-67
2023/03/29 13:14:34;;;;;;;4.20;2.70;;;13.60;79.50;;;;;;5084485;28;20439;-69